createdAt,value
2017-05-27T00:00:20.749Z,1006.69
2017-05-27T00:01:01.232Z,1006.68
2017-05-27T00:01:41.710Z,1006.68
2017-05-27T00:02:22.218Z,1006.67
2017-05-27T00:03:04.618Z,1006.69
2017-05-27T00:03:45.109Z,1006.67
2017-05-27T00:04:25.595Z,1006.66
2017-05-27T00:05:07.028Z,1006.63
2017-05-27T00:05:47.512Z,1006.61
2017-05-27T00:06:28.064Z,1006.62
2017-05-27T00:07:08.493Z,1006.6
2017-05-27T00:07:48.985Z,1006.6
2017-05-27T00:08:29.476Z,1006.58
2017-05-27T00:09:09.969Z,1006.57
2017-05-27T00:09:50.452Z,1006.58
2017-05-27T00:10:30.948Z,1006.57
2017-05-27T00:11:11.445Z,1006.58
2017-05-27T00:11:51.931Z,1006.58
2017-05-27T00:12:33.344Z,1006.55
2017-05-27T00:13:13.846Z,1006.57
2017-05-27T00:13:54.342Z,1006.54
2017-05-27T00:14:34.817Z,1006.56
2017-05-27T00:15:15.320Z,1006.59
2017-05-27T00:15:55.801Z,1006.52
2017-05-27T00:16:36.300Z,1006.56
2017-05-27T00:17:16.809Z,1006.51
2017-05-27T00:17:57.297Z,1006.56
2017-05-27T00:18:37.770Z,1006.56
2017-05-27T00:19:18.272Z,1006.55
2017-05-27T00:19:58.757Z,1006.58
2017-05-27T00:20:40.023Z,1006.61
2017-05-27T00:21:20.511Z,1006.58
2017-05-27T00:22:00.985Z,1006.59
2017-05-27T00:22:41.483Z,1006.59
2017-05-27T00:23:21.975Z,1006.58
2017-05-27T00:24:02.476Z,1006.58
2017-05-27T00:24:42.973Z,1006.59
2017-05-27T00:25:24.453Z,1006.59
2017-05-27T00:26:04.940Z,1006.58
2017-05-27T00:26:45.442Z,1006.58
2017-05-27T00:27:26.447Z,1006.58
2017-05-27T00:28:06.942Z,1006.6
2017-05-27T00:28:47.400Z,1006.6
2017-05-27T00:30:40.230Z,1006.61
2017-05-27T00:31:20.671Z,1006.61
2017-05-27T00:32:01.102Z,1006.63
2017-05-27T00:32:41.573Z,1006.63
2017-05-27T00:33:21.978Z,1006.61
2017-05-27T00:34:02.490Z,1006.61
2017-05-27T00:34:42.932Z,1006.61
2017-05-27T00:35:23.392Z,1006.63
2017-05-27T00:36:03.864Z,1006.57
2017-05-27T00:36:44.321Z,1006.59
2017-05-27T00:37:24.788Z,1006.59
2017-05-27T00:38:05.260Z,1006.61
2017-05-27T00:40:02.886Z,1006.58
2017-05-27T00:40:43.383Z,1006.62
2017-05-27T00:41:23.875Z,1006.62
2017-05-27T00:42:04.369Z,1006.61
2017-05-27T00:42:44.858Z,1006.63
2017-05-27T00:43:25.348Z,1006.61
2017-05-27T00:44:05.844Z,1006.62
2017-05-27T00:44:46.318Z,1006.64
2017-05-27T00:45:26.812Z,1006.66
2017-05-27T00:46:08.100Z,1006.66
2017-05-27T00:46:49.453Z,1006.63
2017-05-27T00:47:29.946Z,1006.66
2017-05-27T00:48:10.431Z,1006.66
2017-05-27T00:48:50.925Z,1006.67
2017-05-27T00:49:31.465Z,1006.63
2017-05-27T00:50:11.976Z,1006.63
2017-05-27T00:50:53.458Z,1006.65
2017-05-27T00:51:33.987Z,1006.64
2017-05-27T00:52:14.478Z,1006.6
2017-05-27T00:52:54.987Z,1006.61
2017-05-27T00:53:36.371Z,1006.61
2017-05-27T00:54:16.849Z,1006.62
2017-05-27T00:54:57.338Z,1006.63
2017-05-27T00:55:37.825Z,1006.65
2017-05-27T00:56:18.320Z,1006.64
2017-05-27T00:56:58.815Z,1006.68
2017-05-27T00:57:39.311Z,1006.69
2017-05-27T00:58:19.790Z,1006.69
2017-05-27T00:59:00.299Z,1006.68
2017-05-27T00:59:40.778Z,1006.71
2017-05-27T01:00:21.280Z,1006.71
2017-05-27T01:02:49.303Z,1006.7
2017-05-27T01:03:29.756Z,1006.71
2017-05-27T01:04:10.217Z,1006.71
2017-05-27T01:04:50.682Z,1006.73
2017-05-27T01:05:31.168Z,1006.72
2017-05-27T01:06:11.605Z,1006.73
2017-05-27T01:06:52.076Z,1006.71
2017-05-27T01:07:32.473Z,1006.7
2017-05-27T01:08:12.977Z,1006.71
2017-05-27T01:08:53.471Z,1006.72
2017-05-27T01:09:33.908Z,1006.69
2017-05-27T01:10:14.409Z,1006.71
2017-05-27T01:10:54.867Z,1006.73
2017-05-27T01:12:47.438Z,1006.68
2017-05-27T01:13:27.939Z,1006.69
2017-05-27T01:14:08.417Z,1006.7
2017-05-27T01:14:48.911Z,1006.71
2017-05-27T01:15:29.414Z,1006.69
2017-05-27T01:16:10.494Z,1006.69
2017-05-27T01:16:50.982Z,1006.68
2017-05-27T01:17:31.476Z,1006.68
2017-05-27T01:18:12.495Z,1006.66
2017-05-27T01:18:52.983Z,1006.67
2017-05-27T01:19:33.466Z,1006.71
2017-05-27T01:20:13.958Z,1006.69
2017-05-27T01:20:54.441Z,1006.69
2017-05-27T01:21:34.932Z,1006.65
2017-05-27T01:22:15.433Z,1006.65
2017-05-27T01:22:56.822Z,1006.7
2017-05-27T01:23:37.311Z,1006.68
2017-05-27T01:24:18.726Z,1006.68
2017-05-27T01:24:59.216Z,1006.67
2017-05-27T01:25:39.705Z,1006.67
2017-05-27T01:26:21.129Z,1006.7
2017-05-27T01:27:01.656Z,1006.69
2017-05-27T01:27:42.144Z,1006.72
2017-05-27T01:28:22.632Z,1006.72
2017-05-27T01:29:03.128Z,1006.7
2017-05-27T01:29:43.599Z,1006.7
2017-05-27T01:30:24.104Z,1006.69
2017-05-27T01:31:04.592Z,1006.68
2017-05-27T01:31:45.137Z,1006.69
2017-05-27T01:32:25.587Z,1006.74
2017-05-27T01:33:06.086Z,1006.73
2017-05-27T01:33:46.575Z,1006.7
2017-05-27T01:34:27.071Z,1006.7
2017-05-27T01:35:07.553Z,1006.72
2017-05-27T01:35:48.055Z,1006.7
2017-05-27T01:36:28.544Z,1006.71
2017-05-27T01:37:09.030Z,1006.69
2017-05-27T01:39:21.746Z,1006.63
2017-05-27T01:40:02.232Z,1006.66
2017-05-27T01:40:42.733Z,1006.63
2017-05-27T01:41:23.225Z,1006.64
2017-05-27T01:42:03.700Z,1006.64
2017-05-27T01:42:44.166Z,1006.64
2017-05-27T01:43:26.545Z,1006.63
2017-05-27T01:44:07.026Z,1006.63
2017-05-27T01:46:20.192Z,1006.64
2017-05-27T01:47:00.613Z,1006.63
2017-05-27T01:47:41.075Z,1006.66
2017-05-27T01:48:21.571Z,1006.65
2017-05-27T01:49:02.011Z,1006.65
2017-05-27T01:49:42.482Z,1006.66
2017-05-27T01:51:55.191Z,1006.72
2017-05-27T01:52:35.676Z,1006.74
2017-05-27T01:53:16.175Z,1006.72
2017-05-27T01:53:56.668Z,1006.76
2017-05-27T01:54:37.151Z,1006.75
2017-05-27T01:55:18.154Z,1006.72
2017-05-27T01:55:58.655Z,1006.74
2017-05-27T01:56:39.145Z,1006.74
2017-05-27T01:57:19.639Z,1006.74
2017-05-27T01:58:00.134Z,1006.74
2017-05-27T01:58:40.637Z,1006.7
2017-05-27T01:59:21.122Z,1006.74
2017-05-27T02:00:01.617Z,1006.76
2017-05-27T02:00:42.088Z,1006.76
2017-05-27T02:01:22.584Z,1006.76
2017-05-27T02:02:03.082Z,1006.76
2017-05-27T02:02:43.572Z,1006.79
2017-05-27T02:03:24.881Z,1006.78
2017-05-27T02:04:05.378Z,1006.76
2017-05-27T02:04:45.874Z,1006.75
2017-05-27T02:05:26.876Z,1006.78
2017-05-27T02:06:07.369Z,1006.79
2017-05-27T02:06:47.856Z,1006.79
2017-05-27T02:07:29.151Z,1006.79
2017-05-27T02:08:09.654Z,1006.79
2017-05-27T02:08:50.150Z,1006.81
2017-05-27T02:09:31.244Z,1006.8
2017-05-27T02:10:11.741Z,1006.78
2017-05-27T02:10:53.146Z,1006.83
2017-05-27T02:11:34.586Z,1006.82
2017-05-27T02:12:15.075Z,1006.81
2017-05-27T02:12:55.566Z,1006.82
2017-05-27T02:13:36.060Z,1006.81
2017-05-27T02:14:16.555Z,1006.82
2017-05-27T02:14:57.040Z,1006.86
2017-05-27T02:15:37.525Z,1006.84
2017-05-27T02:16:18.010Z,1006.82
2017-05-27T02:16:58.487Z,1006.88
2017-05-27T02:17:38.986Z,1006.85
2017-05-27T02:18:20.382Z,1006.86
2017-05-27T02:19:00.887Z,1006.88
2017-05-27T02:19:41.389Z,1006.85
2017-05-27T02:20:21.936Z,1006.85
2017-05-27T02:21:02.386Z,1006.84
2017-05-27T02:21:42.881Z,1006.84
2017-05-27T02:22:24.879Z,1006.85
2017-05-27T02:23:05.369Z,1006.86
2017-05-27T02:23:45.857Z,1006.88
2017-05-27T02:24:26.360Z,1006.87
2017-05-27T02:25:06.833Z,1006.86
2017-05-27T02:25:47.320Z,1006.89
2017-05-27T02:26:27.818Z,1006.89
2017-05-27T02:27:08.310Z,1006.86
2017-05-27T02:27:48.799Z,1006.91
2017-05-27T02:28:29.292Z,1006.89
2017-05-27T02:29:09.779Z,1006.88
2017-05-27T02:29:50.269Z,1006.91
2017-05-27T02:30:30.763Z,1006.86
2017-05-27T02:31:11.256Z,1006.87
2017-05-27T02:31:51.758Z,1006.87
2017-05-27T02:32:32.277Z,1006.87
2017-05-27T02:33:12.763Z,1006.85
2017-05-27T02:33:53.311Z,1006.86
2017-05-27T02:34:33.753Z,1006.88
2017-05-27T02:35:14.238Z,1006.91
2017-05-27T02:35:55.388Z,1006.91
2017-05-27T02:36:35.877Z,1006.92
2017-05-27T02:37:16.364Z,1006.9
2017-05-27T02:37:56.850Z,1006.9
2017-05-27T02:38:37.354Z,1006.9
2017-05-27T02:39:17.836Z,1006.94
2017-05-27T02:39:58.883Z,1006.94
2017-05-27T02:40:39.379Z,1006.95
2017-05-27T02:41:20.584Z,1006.95
2017-05-27T02:42:01.076Z,1006.99
2017-05-27T02:42:41.557Z,1007
2017-05-27T02:43:22.034Z,1006.99
2017-05-27T02:44:02.517Z,1006.99
2017-05-27T02:44:43.887Z,1007.04
2017-05-27T02:45:24.391Z,1007.02
2017-05-27T02:46:04.876Z,1007.02
2017-05-27T02:46:45.994Z,1007.02
2017-05-27T02:47:26.493Z,1007.04
2017-05-27T02:48:07.666Z,1007.01
2017-05-27T02:48:48.145Z,1007.03
2017-05-27T02:51:16.069Z,1007.04
2017-05-27T02:51:57.537Z,1007.07
2017-05-27T02:52:38.580Z,1007.05
2017-05-27T02:53:19.078Z,1007.03
2017-05-27T02:53:59.552Z,1007.07
2017-05-27T02:54:40.065Z,1007.06
2017-05-27T02:55:21.053Z,1007.06
2017-05-27T02:56:01.555Z,1007.07
2017-05-27T02:56:42.095Z,1007.02
2017-05-27T02:57:22.606Z,1007.1
2017-05-27T02:58:03.089Z,1007.04
2017-05-27T02:58:44.465Z,1007.08
2017-05-27T02:59:24.968Z,1007.05
2017-05-27T03:00:06.381Z,1007.08
2017-05-27T03:00:47.479Z,1007.07
2017-05-27T03:01:27.934Z,1007.06
2017-05-27T03:02:08.427Z,1007.04
2017-05-27T03:02:48.933Z,1007.08
2017-05-27T03:03:29.414Z,1007.09
2017-05-27T03:04:09.953Z,1007.12
2017-05-27T03:04:50.407Z,1007.12
2017-05-27T03:05:31.561Z,1007.14
2017-05-27T03:06:12.046Z,1007.15
2017-05-27T03:06:53.153Z,1007.13
2017-05-27T03:07:33.648Z,1007.14
2017-05-27T03:08:14.137Z,1007.13
2017-05-27T03:08:54.626Z,1007.16
2017-05-27T03:09:35.875Z,1007.12
2017-05-27T03:10:16.359Z,1007.14
2017-05-27T03:10:56.867Z,1007.13
2017-05-27T03:11:37.348Z,1007.12
2017-05-27T03:12:18.570Z,1007.18
2017-05-27T03:12:59.054Z,1007.18
2017-05-27T03:13:40.376Z,1007.13
2017-05-27T03:14:20.862Z,1007.15
2017-05-27T03:15:01.356Z,1007.16
2017-05-27T03:15:42.477Z,1007.13
2017-05-27T03:16:22.981Z,1007.14
2017-05-27T03:17:03.470Z,1007.13
2017-05-27T03:17:45.878Z,1007.14
2017-05-27T03:18:26.896Z,1007.16
2017-05-27T03:19:07.386Z,1007.17
2017-05-27T03:19:47.901Z,1007.16
2017-05-27T03:20:28.396Z,1007.18
2017-05-27T03:21:08.884Z,1007.14
2017-05-27T03:21:49.376Z,1007.14
2017-05-27T03:22:29.868Z,1007.15
2017-05-27T03:23:10.360Z,1007.15
2017-05-27T03:23:50.850Z,1007.14
2017-05-27T03:24:31.348Z,1007.14
2017-05-27T03:25:11.837Z,1007.16
2017-05-27T03:25:52.325Z,1007.14
2017-05-27T03:26:32.839Z,1007.13
2017-05-27T03:27:13.324Z,1007.16
2017-05-27T03:27:53.821Z,1007.16
2017-05-27T03:28:35.158Z,1007.15
2017-05-27T03:29:15.630Z,1007.16
2017-05-27T03:29:56.115Z,1007.13
2017-05-27T03:30:36.597Z,1007.13
2017-05-27T03:31:17.092Z,1007.15
2017-05-27T03:31:57.593Z,1007.18
2017-05-27T03:32:38.086Z,1007.15
2017-05-27T03:33:19.386Z,1007.13
2017-05-27T03:33:59.872Z,1007.16
2017-05-27T03:34:40.372Z,1007.15
2017-05-27T03:35:21.657Z,1007.16
2017-05-27T03:36:02.152Z,1007.16
2017-05-27T03:36:42.642Z,1007.17
2017-05-27T03:37:23.126Z,1007.19
2017-05-27T03:38:03.623Z,1007.19
2017-05-27T03:38:44.115Z,1007.17
2017-05-27T03:39:26.379Z,1007.18
2017-05-27T03:40:06.861Z,1007.21
2017-05-27T03:40:47.352Z,1007.24
2017-05-27T03:41:27.853Z,1007.24
2017-05-27T03:42:08.354Z,1007.25
2017-05-27T03:42:48.844Z,1007.25
2017-05-27T03:43:29.337Z,1007.29
2017-05-27T03:44:09.826Z,1007.26
2017-05-27T03:44:50.319Z,1007.26
2017-05-27T03:45:30.810Z,1007.26
2017-05-27T03:46:11.297Z,1007.25
2017-05-27T03:46:51.798Z,1007.26
2017-05-27T03:47:32.282Z,1007.24
2017-05-27T03:48:12.772Z,1007.27
2017-05-27T03:48:53.280Z,1007.28
2017-05-27T03:49:34.581Z,1007.25
2017-05-27T03:50:15.067Z,1007.26
2017-05-27T03:50:55.560Z,1007.24
2017-05-27T03:51:36.058Z,1007.24
2017-05-27T03:52:16.541Z,1007.25
2017-05-27T03:52:57.018Z,1007.28
2017-05-27T03:53:37.512Z,1007.26
2017-05-27T03:54:17.995Z,1007.3
2017-05-27T03:54:59.067Z,1007.27
2017-05-27T03:55:39.558Z,1007.28
2017-05-27T03:56:20.065Z,1007.3
2017-05-27T03:57:00.547Z,1007.35
2017-05-27T03:57:41.042Z,1007.35
2017-05-27T03:58:21.512Z,1007.33
2017-05-27T03:59:02.663Z,1007.3
2017-05-27T03:59:43.143Z,1007.34
2017-05-27T04:00:24.294Z,1007.36
2017-05-27T04:01:05.295Z,1007.33
2017-05-27T04:01:45.775Z,1007.34
2017-05-27T04:02:26.267Z,1007.35
2017-05-27T04:03:06.752Z,1007.36
2017-05-27T04:03:47.250Z,1007.38
2017-05-27T04:04:27.743Z,1007.39
2017-05-27T04:05:08.225Z,1007.38
2017-05-27T04:05:48.704Z,1007.38
2017-05-27T04:06:29.193Z,1007.4
2017-05-27T04:07:10.669Z,1007.41
2017-05-27T04:07:51.161Z,1007.43
2017-05-27T04:08:31.643Z,1007.4
2017-05-27T04:09:12.665Z,1007.41
2017-05-27T04:09:53.151Z,1007.44
2017-05-27T04:10:33.635Z,1007.45
2017-05-27T04:11:14.132Z,1007.44
2017-05-27T04:11:54.624Z,1007.45
2017-05-27T04:12:35.109Z,1007.47
2017-05-27T04:13:16.380Z,1007.45
2017-05-27T04:13:56.865Z,1007.48
2017-05-27T04:14:37.374Z,1007.47
2017-05-27T04:15:17.848Z,1007.47
2017-05-27T04:15:59.169Z,1007.46
2017-05-27T04:16:39.672Z,1007.5
2017-05-27T04:17:20.803Z,1007.45
2017-05-27T04:18:01.304Z,1007.46
2017-05-27T04:18:41.803Z,1007.47
2017-05-27T04:19:22.291Z,1007.45
2017-05-27T04:20:04.167Z,1007.49
2017-05-27T04:20:44.677Z,1007.47
2017-05-27T04:21:25.161Z,1007.5
2017-05-27T04:22:05.650Z,1007.48
2017-05-27T04:22:46.155Z,1007.51
2017-05-27T04:23:26.641Z,1007.5
2017-05-27T04:24:07.140Z,1007.51
2017-05-27T04:24:47.629Z,1007.53
2017-05-27T04:25:28.117Z,1007.51
2017-05-27T04:26:08.623Z,1007.51
2017-05-27T04:26:49.107Z,1007.57
2017-05-27T04:27:29.604Z,1007.57
2017-05-27T04:28:10.809Z,1007.59
2017-05-27T04:28:51.305Z,1007.55
2017-05-27T04:29:32.580Z,1007.58
2017-05-27T04:30:13.068Z,1007.57
2017-05-27T04:30:53.569Z,1007.57
2017-05-27T04:31:34.899Z,1007.55
2017-05-27T04:32:15.384Z,1007.57
2017-05-27T04:32:55.896Z,1007.58
2017-05-27T04:33:36.377Z,1007.61
2017-05-27T04:34:16.870Z,1007.62
2017-05-27T04:34:57.369Z,1007.62
2017-05-27T04:35:37.852Z,1007.6
2017-05-27T04:36:18.343Z,1007.63
2017-05-27T04:36:58.830Z,1007.65
2017-05-27T04:37:39.319Z,1007.63
2017-05-27T04:38:20.495Z,1007.62
2017-05-27T04:39:00.975Z,1007.64
2017-05-27T04:39:41.464Z,1007.64
2017-05-27T04:40:21.962Z,1007.65
2017-05-27T04:41:02.451Z,1007.64
2017-05-27T04:41:42.930Z,1007.63
2017-05-27T04:42:23.995Z,1007.65
2017-05-27T04:43:04.483Z,1007.65
2017-05-27T04:43:44.968Z,1007.63
2017-05-27T04:44:25.467Z,1007.64
2017-05-27T04:45:05.950Z,1007.66
2017-05-27T04:45:46.501Z,1007.65
2017-05-27T04:46:26.925Z,1007.68
2017-05-27T04:47:07.429Z,1007.63
2017-05-27T04:47:47.927Z,1007.67
2017-05-27T04:48:28.416Z,1007.63
2017-05-27T04:49:08.906Z,1007.6
2017-05-27T04:49:49.411Z,1007.62
2017-05-27T04:50:29.897Z,1007.63
2017-05-27T04:51:10.390Z,1007.65
2017-05-27T04:51:50.877Z,1007.61
2017-05-27T04:52:31.362Z,1007.6
2017-05-27T04:53:11.863Z,1007.58
2017-05-27T04:53:53.082Z,1007.6
2017-05-27T04:54:33.574Z,1007.57
2017-05-27T04:55:14.907Z,1007.59
2017-05-27T04:55:55.409Z,1007.59
2017-05-27T04:56:35.874Z,1007.63
2017-05-27T04:58:28.424Z,1007.6
2017-05-27T04:59:08.917Z,1007.6
2017-05-27T04:59:49.414Z,1007.61
2017-05-27T05:00:29.903Z,1007.64
2017-05-27T05:01:10.398Z,1007.64
2017-05-27T05:01:50.891Z,1007.68
2017-05-27T05:02:31.380Z,1007.67
2017-05-27T05:03:11.879Z,1007.68
2017-05-27T05:03:52.371Z,1007.69
2017-05-27T05:04:32.850Z,1007.71
2017-05-27T05:05:13.354Z,1007.67
2017-05-27T05:05:53.850Z,1007.7
2017-05-27T05:06:34.342Z,1007.7
2017-05-27T05:07:14.849Z,1007.71
2017-05-27T05:07:56.347Z,1007.69
2017-05-27T05:08:36.819Z,1007.73
2017-05-27T05:09:17.313Z,1007.72
2017-05-27T05:09:58.735Z,1007.76
2017-05-27T05:10:39.243Z,1007.75
2017-05-27T05:11:19.734Z,1007.74
2017-05-27T05:12:00.228Z,1007.73
2017-05-27T05:12:40.720Z,1007.78
2017-05-27T05:13:21.215Z,1007.76
2017-05-27T05:14:01.719Z,1007.77
2017-05-27T05:14:42.189Z,1007.76
2017-05-27T05:15:22.699Z,1007.77
2017-05-27T05:16:03.188Z,1007.79
2017-05-27T05:16:43.673Z,1007.81
2017-05-27T05:17:24.171Z,1007.79
2017-05-27T05:18:04.660Z,1007.75
2017-05-27T05:18:45.137Z,1007.8
2017-05-27T05:19:25.644Z,1007.8
2017-05-27T05:20:06.132Z,1007.83
2017-05-27T05:20:46.598Z,1007.83
2017-05-27T05:21:27.073Z,1007.85
2017-05-27T05:22:07.573Z,1007.87
2017-05-27T05:22:48.066Z,1007.88
2017-05-27T05:23:28.551Z,1007.87
2017-05-27T05:24:09.052Z,1007.88
2017-05-27T05:24:50.512Z,1007.89
2017-05-27T05:27:03.234Z,1007.95
2017-05-27T05:27:43.735Z,1008
2017-05-27T05:28:24.235Z,1007.98
2017-05-27T05:29:04.741Z,1007.95
2017-05-27T05:29:45.241Z,1007.95
2017-05-27T05:30:25.728Z,1007.95
2017-05-27T05:31:06.223Z,1007.96
2017-05-27T05:31:46.738Z,1007.93
2017-05-27T05:32:27.227Z,1007.95
2017-05-27T05:33:07.738Z,1007.93
2017-05-27T05:33:48.238Z,1007.96
2017-05-27T05:34:28.731Z,1007.96
2017-05-27T05:35:09.228Z,1007.98
2017-05-27T05:35:49.728Z,1007.97
2017-05-27T05:36:30.166Z,1008
2017-05-27T05:37:10.662Z,1008.03
2017-05-27T05:37:52.024Z,1007.95
2017-05-27T05:38:32.531Z,1008.01
2017-05-27T05:39:13.020Z,1008.02
2017-05-27T05:39:53.514Z,1008.04
2017-05-27T05:42:11.317Z,1008.03
2017-05-27T05:42:51.815Z,1008.05
2017-05-27T05:43:32.307Z,1008.06
2017-05-27T05:44:12.787Z,1008.07
2017-05-27T05:44:53.283Z,1008.04
2017-05-27T05:45:33.778Z,1008.01
2017-05-27T05:46:14.273Z,1008.03
2017-05-27T05:46:54.770Z,1008.02
2017-05-27T05:47:35.276Z,1008
2017-05-27T05:48:15.754Z,1008.03
2017-05-27T05:48:56.249Z,1008.07
2017-05-27T05:49:36.750Z,1008.07
2017-05-27T05:50:17.247Z,1008.09
2017-05-27T05:50:57.752Z,1008.08
2017-05-27T05:51:38.243Z,1008.08
2017-05-27T05:52:18.741Z,1008.11
2017-05-27T05:52:59.228Z,1008.15
2017-05-27T05:53:40.533Z,1008.13
2017-05-27T05:54:21.019Z,1008.13
2017-05-27T05:55:01.528Z,1008.13
2017-05-27T05:55:42.014Z,1008.13
2017-05-27T05:56:22.511Z,1008.11
2017-05-27T05:57:03.037Z,1008.13
2017-05-27T05:57:43.535Z,1008.12
2017-05-27T05:58:24.027Z,1008.11
2017-05-27T05:59:04.529Z,1008.13
2017-05-27T05:59:45.024Z,1008.13
2017-05-27T06:00:26.111Z,1008.12
2017-05-27T06:01:06.637Z,1008.09
2017-05-27T06:01:47.140Z,1008.13
2017-05-27T06:02:28.626Z,1008.12
2017-05-27T06:03:09.108Z,1008.11
2017-05-27T06:03:49.591Z,1008.1
2017-05-27T06:04:30.097Z,1008.11
2017-05-27T06:05:10.579Z,1008.12
2017-05-27T06:05:52.025Z,1008.13
2017-05-27T06:06:32.521Z,1008.09
2017-05-27T06:07:13.006Z,1008.14
2017-05-27T06:07:53.514Z,1008.12
2017-05-27T06:08:34.013Z,1008.12
2017-05-27T06:09:14.499Z,1008.12
2017-05-27T06:09:54.990Z,1008.12
2017-05-27T06:10:35.496Z,1008.07
2017-05-27T06:11:16.003Z,1008.09
2017-05-27T06:11:56.494Z,1008.04
2017-05-27T06:12:36.987Z,1008.07
2017-05-27T06:13:17.491Z,1008.05
2017-05-27T06:13:57.983Z,1008.06
2017-05-27T06:14:38.472Z,1008.05
2017-05-27T06:15:20.399Z,1008.05
2017-05-27T06:16:01.758Z,1008.09
2017-05-27T06:16:42.264Z,1008.07
2017-05-27T06:17:22.745Z,1008.05
2017-05-27T06:18:03.907Z,1008.06
2017-05-27T06:18:45.206Z,1008.05
2017-05-27T06:19:25.700Z,1008.08
2017-05-27T06:20:06.213Z,1008.07
2017-05-27T06:20:46.718Z,1008.03
2017-05-27T06:21:27.217Z,1008.03
2017-05-27T06:22:07.717Z,1008.04
2017-05-27T06:22:48.225Z,1008.03
2017-05-27T06:23:28.704Z,1008.03
2017-05-27T06:24:09.189Z,1007.96
2017-05-27T06:24:49.707Z,1007.99
2017-05-27T06:25:30.187Z,1007.98
2017-05-27T06:27:58.140Z,1007.92
2017-05-27T06:28:38.647Z,1007.92
2017-05-27T06:29:19.120Z,1007.87
2017-05-27T06:29:59.621Z,1007.89
2017-05-27T06:30:40.112Z,1007.87
2017-05-27T06:31:20.600Z,1007.86
2017-05-27T06:32:01.091Z,1007.88
2017-05-27T06:32:41.587Z,1007.9
2017-05-27T06:34:39.234Z,1007.92
2017-05-27T06:35:19.734Z,1007.95
2017-05-27T06:36:01.196Z,1007.95
2017-05-27T06:36:42.514Z,1007.95
2017-05-27T06:37:22.998Z,1007.96
2017-05-27T06:40:52.950Z,1008.03
2017-05-27T06:41:33.384Z,1008.02
2017-05-27T06:42:13.868Z,1008.05
2017-05-27T06:42:56.078Z,1008.03
2017-05-27T06:43:36.577Z,1008.05
2017-05-27T06:44:17.851Z,1008.02
2017-05-27T06:44:58.342Z,1008.03
2017-05-27T06:45:38.815Z,1008.08
2017-05-27T06:46:19.318Z,1008.01
2017-05-27T06:46:59.816Z,1008.03
2017-05-27T06:47:40.309Z,1008.06
2017-05-27T06:48:20.808Z,1008.08
2017-05-27T06:49:01.957Z,1008.13
2017-05-27T06:49:42.444Z,1008.09
2017-05-27T06:50:22.924Z,1008.11
2017-05-27T06:51:03.425Z,1008.12
2017-05-27T06:51:43.903Z,1008.09
2017-05-27T06:52:24.399Z,1008.1
2017-05-27T06:53:05.677Z,1008.15
2017-05-27T06:53:46.179Z,1008.11
2017-05-27T06:54:26.668Z,1008.12
2017-05-27T06:55:07.159Z,1008.09
2017-05-27T06:55:47.649Z,1008.09
2017-05-27T06:56:28.121Z,1008.08
2017-05-27T06:57:08.610Z,1008.01
2017-05-27T06:57:49.099Z,1008.04
2017-05-27T06:58:30.375Z,1008.05
2017-05-27T06:59:10.861Z,1008.01
2017-05-27T06:59:51.350Z,1008.01
2017-05-27T07:00:31.830Z,1007.95
2017-05-27T07:01:12.290Z,1007.99
2017-05-27T07:01:52.771Z,1007.98
2017-05-27T07:02:33.233Z,1008.01
2017-05-27T07:03:13.705Z,1007.96
2017-05-27T07:03:54.869Z,1007.98
2017-05-27T07:04:35.331Z,1007.94
2017-05-27T07:05:15.783Z,1007.93
2017-05-27T07:05:56.851Z,1007.94
2017-05-27T07:06:37.302Z,1007.95
2017-05-27T07:07:17.757Z,1007.96
2017-05-27T07:07:58.966Z,1007.95
2017-05-27T07:08:39.461Z,1007.93
2017-05-27T07:09:19.957Z,1007.93
2017-05-27T07:10:00.470Z,1007.95
2017-05-27T07:10:40.952Z,1007.92
2017-05-27T07:11:21.444Z,1007.95
2017-05-27T07:12:01.932Z,1007.94
2017-05-27T07:12:43.297Z,1007.93
2017-05-27T07:13:23.802Z,1007.94
2017-05-27T07:14:04.302Z,1007.93
2017-05-27T07:14:44.814Z,1007.89
2017-05-27T07:15:25.311Z,1007.92
2017-05-27T07:16:05.808Z,1007.93
2017-05-27T07:16:46.298Z,1007.94
2017-05-27T07:17:26.789Z,1007.92
2017-05-27T07:18:07.277Z,1007.91
2017-05-27T07:18:47.779Z,1007.94
2017-05-27T07:19:28.274Z,1007.95
2017-05-27T07:20:08.762Z,1007.92
2017-05-27T07:20:49.248Z,1007.89
2017-05-27T07:21:29.738Z,1007.9
2017-05-27T07:22:10.215Z,1007.93
2017-05-27T07:22:50.718Z,1007.93
2017-05-27T07:23:31.223Z,1007.93
2017-05-27T07:24:11.707Z,1007.93
2017-05-27T07:24:52.889Z,1007.91
2017-05-27T07:25:34.122Z,1007.95
2017-05-27T07:26:14.616Z,1007.93
2017-05-27T07:26:55.102Z,1007.96
2017-05-27T07:27:35.599Z,1007.93
2017-05-27T07:28:16.976Z,1007.93
2017-05-27T07:28:57.465Z,1007.89
2017-05-27T07:29:37.949Z,1007.94
2017-05-27T07:30:18.458Z,1007.93
2017-05-27T07:30:58.938Z,1007.98
2017-05-27T07:31:39.449Z,1007.99
2017-05-27T07:32:19.937Z,1007.96
2017-05-27T07:33:00.442Z,1007.98
2017-05-27T07:33:40.941Z,1008.01
2017-05-27T07:34:21.428Z,1007.99
2017-05-27T07:35:01.916Z,1007.98
2017-05-27T07:35:42.399Z,1008.02
2017-05-27T07:36:23.912Z,1008.02
2017-05-27T07:37:04.402Z,1008
2017-05-27T07:37:44.890Z,1007.98
2017-05-27T07:38:25.394Z,1008.01
2017-05-27T07:39:05.889Z,1008.02
2017-05-27T07:39:46.393Z,1008.01
2017-05-27T07:40:26.891Z,1008
2017-05-27T07:41:07.371Z,1007.99
2017-05-27T07:41:47.845Z,1008.02
2017-05-27T07:42:28.355Z,1008
2017-05-27T07:43:08.851Z,1008.01
2017-05-27T07:43:49.362Z,1008.01
2017-05-27T07:44:29.848Z,1008.05
2017-05-27T07:45:10.330Z,1008.05
2017-05-27T07:45:50.845Z,1008.03
2017-05-27T07:46:31.327Z,1008.04
2017-05-27T07:47:11.841Z,1008.06
2017-05-27T07:47:52.324Z,1008.02
2017-05-27T07:48:32.818Z,1008
2017-05-27T07:49:13.316Z,1007.96
2017-05-27T07:49:53.806Z,1008.01
2017-05-27T07:50:34.254Z,1007.97
2017-05-27T07:51:14.682Z,1007.96
2017-05-27T07:51:55.132Z,1007.99
2017-05-27T07:52:35.590Z,1007.98
2017-05-27T07:54:28.500Z,1007.95
2017-05-27T07:55:08.988Z,1007.91
2017-05-27T07:55:50.135Z,1007.93
2017-05-27T07:56:30.621Z,1007.92
2017-05-27T07:58:43.343Z,1007.96
2017-05-27T07:59:23.842Z,1007.96
2017-05-27T08:00:04.341Z,1007.87
2017-05-27T08:00:44.878Z,1007.84
2017-05-27T08:01:25.354Z,1007.79
2017-05-27T08:02:05.853Z,1007.81
2017-05-27T08:02:46.341Z,1007.77
2017-05-27T08:03:26.852Z,1007.78
2017-05-27T08:04:07.356Z,1007.79
2017-05-27T08:04:47.840Z,1007.73
2017-05-27T08:05:28.332Z,1007.75
2017-05-27T08:06:08.835Z,1007.8
2017-05-27T08:06:50.150Z,1007.75
2017-05-27T08:07:30.629Z,1007.7
2017-05-27T08:08:11.134Z,1007.75
2017-05-27T08:08:51.622Z,1007.79
2017-05-27T08:09:32.109Z,1007.76
2017-05-27T08:10:12.607Z,1007.78
2017-05-27T08:10:53.100Z,1007.8
2017-05-27T08:11:33.584Z,1007.83
2017-05-27T08:12:14.085Z,1007.77
2017-05-27T08:12:54.564Z,1007.78
2017-05-27T08:13:35.061Z,1007.78
2017-05-27T08:14:16.339Z,1007.83
2017-05-27T08:14:56.830Z,1007.87
2017-05-27T08:15:37.325Z,1007.84
2017-05-27T08:16:17.811Z,1007.79
2017-05-27T08:16:58.299Z,1007.81
2017-05-27T08:19:26.275Z,1007.81
2017-05-27T08:20:06.781Z,1007.8
2017-05-27T08:20:47.272Z,1007.82
2017-05-27T08:21:27.763Z,1007.78
2017-05-27T08:22:08.269Z,1007.74
2017-05-27T08:22:48.773Z,1007.73
2017-05-27T08:23:29.263Z,1007.76
2017-05-27T08:24:09.765Z,1007.73
2017-05-27T08:24:50.254Z,1007.76
2017-05-27T08:25:30.733Z,1007.72
2017-05-27T08:26:11.230Z,1007.69
2017-05-27T08:26:51.730Z,1007.73
2017-05-27T08:27:32.228Z,1007.73
2017-05-27T08:28:12.745Z,1007.74
2017-05-27T08:28:53.234Z,1007.76
2017-05-27T08:29:33.731Z,1007.79
2017-05-27T08:30:14.225Z,1007.73
2017-05-27T08:30:54.710Z,1007.79
2017-05-27T08:31:36.067Z,1007.78
2017-05-27T08:32:16.570Z,1007.78
2017-05-27T08:32:57.108Z,1007.81
2017-05-27T08:33:38.462Z,1007.77
2017-05-27T08:34:18.950Z,1007.79
2017-05-27T08:34:59.446Z,1007.83
2017-05-27T08:35:40.559Z,1007.84
2017-05-27T08:36:21.047Z,1007.81
2017-05-27T08:37:01.550Z,1007.81
2017-05-27T08:37:42.050Z,1007.82
2017-05-27T08:38:22.553Z,1007.77
2017-05-27T08:39:03.050Z,1007.77